sensor_id;sensor_type;location;lat;lon;timestamp;P1;durP1;ratioP1;P2;durP2;ratioP2
52564;SDS011;38460;53.106;7.004;2022-10-16T00:01:05;6.50;;;2.20;;
52564;SDS011;38460;53.106;7.004;2022-10-16T00:03:36;5.53;;;2.35;;
52564;SDS011;38460;53.106;7.004;2022-10-16T00:06:02;8.20;;;2.88;;
52564;SDS011;38460;53.106;7.004;2022-10-16T00:08:28;5.88;;;2.50;;
52564;SDS011;38460;53.106;7.004;2022-10-16T00:10:58;5.18;;;2.15;;
52564;SDS011;38460;53.106;7.004;2022-10-16T00:13:29;5.30;;;2.13;;
52564;SDS011;38460;53.106;7.004;2022-10-16T00:15:56;6.70;;;2.40;;
52564;SDS011;38460;53.106;7.004;2022-10-16T00:18:22;4.95;;;2.42;;
52564;SDS011;38460;53.106;7.004;2022-10-16T00:20:49;7.25;;;2.47;;
52564;SDS011;38460;53.106;7.004;2022-10-16T00:23:15;8.50;;;3.17;;
52564;SDS011;38460;53.106;7.004;2022-10-16T00:25:40;5.07;;;2.13;;
52564;SDS011;38460;53.106;7.004;2022-10-16T00:28:06;4.95;;;2.08;;
52564;SDS011;38460;53.106;7.004;2022-10-16T00:30:32;4.43;;;2.35;;
52564;SDS011;38460;53.106;7.004;2022-10-16T00:32:58;4.90;;;2.15;;
52564;SDS011;38460;53.106;7.004;2022-10-16T00:35:23;5.50;;;2.25;;
52564;SDS011;38460;53.106;7.004;2022-10-16T00:37:49;6.68;;;2.13;;
52564;SDS011;38460;53.106;7.004;2022-10-16T00:40:15;5.35;;;2.20;;
52564;SDS011;38460;53.106;7.004;2022-10-16T00:42:41;5.50;;;2.60;;
52564;SDS011;38460;53.106;7.004;2022-10-16T00:45:08;6.30;;;2.55;;
52564;SDS011;38460;53.106;7.004;2022-10-16T00:47:35;7.07;;;2.67;;
52564;SDS011;38460;53.106;7.004;2022-10-16T00:52:39;4.63;;;2.38;;
52564;SDS011;38460;53.106;7.004;2022-10-16T00:55:09;7.53;;;2.00;;
52564;SDS011;38460;53.106;7.004;2022-10-16T00:57:36;3.80;;;2.08;;
52564;SDS011;38460;53.106;7.004;2022-10-16T01:00:03;5.80;;;2.20;;
52564;SDS011;38460;53.106;7.004;2022-10-16T01:02:31;4.88;;;2.00;;
52564;SDS011;38460;53.106;7.004;2022-10-16T01:04:57;4.70;;;2.25;;
52564;SDS011;38460;53.106;7.004;2022-10-16T01:13:07;6.10;;;2.30;;
52564;SDS011;38460;53.106;7.004;2022-10-16T01:15:37;6.80;;;2.47;;
52564;SDS011;38460;53.106;7.004;2022-10-16T01:18:57;6.03;;;2.15;;
52564;SDS011;38460;53.106;7.004;2022-10-16T01:21:22;6.60;;;2.53;;
52564;SDS011;38460;53.106;7.004;2022-10-16T01:34:50;6.00;;;1.83;;
52564;SDS011;38460;53.106;7.004;2022-10-16T01:37:35;6.53;;;2.55;;
52564;SDS011;38460;53.106;7.004;2022-10-16T01:40:13;5.07;;;2.10;;
52564;SDS011;38460;53.106;7.004;2022-10-16T01:42:42;5.47;;;2.05;;
52564;SDS011;38460;53.106;7.004;2022-10-16T01:45:15;5.22;;;2.28;;
52564;SDS011;38460;53.106;7.004;2022-10-16T01:47:43;8.77;;;3.15;;
52564;SDS011;38460;53.106;7.004;2022-10-16T01:50:10;4.05;;;1.90;;
52564;SDS011;38460;53.106;7.004;2022-10-16T01:52:40;4.00;;;1.88;;
52564;SDS011;38460;53.106;7.004;2022-10-16T01:55:08;4.47;;;2.28;;
52564;SDS011;38460;53.106;7.004;2022-10-16T01:57:37;6.50;;;2.38;;
52564;SDS011;38460;53.106;7.004;2022-10-16T02:00:08;4.07;;;2.22;;
52564;SDS011;38460;53.106;7.004;2022-10-16T02:02:37;8.90;;;2.35;;
52564;SDS011;38460;53.106;7.004;2022-10-16T02:05:20;4.85;;;2.30;;
52564;SDS011;38460;53.106;7.004;2022-10-16T02:07:52;4.47;;;2.42;;
52564;SDS011;38460;53.106;7.004;2022-10-16T02:10:17;4.10;;;2.13;;
52564;SDS011;38460;53.106;7.004;2022-10-16T02:12:50;5.20;;;2.40;;
52564;SDS011;38460;53.106;7.004;2022-10-16T02:15:25;3.90;;;2.00;;
52564;SDS011;38460;53.106;7.004;2022-10-16T02:17:51;4.82;;;2.60;;
52564;SDS011;38460;53.106;7.004;2022-10-16T02:20:17;6.43;;;2.40;;
52564;SDS011;38460;53.106;7.004;2022-10-16T02:22:48;5.78;;;2.15;;
52564;SDS011;38460;53.106;7.004;2022-10-16T02:28:01;18.75;;;2.67;;
52564;SDS011;38460;53.106;7.004;2022-10-16T02:31:11;6.15;;;2.70;;
52564;SDS011;38460;53.106;7.004;2022-10-16T02:33:33;5.13;;;2.50;;
52564;SDS011;38460;53.106;7.004;2022-10-16T02:36:01;6.22;;;2.70;;
52564;SDS011;38460;53.106;7.004;2022-10-16T02:38:27;5.25;;;2.10;;
52564;SDS011;38460;53.106;7.004;2022-10-16T02:40:55;5.25;;;2.38;;
52564;SDS011;38460;53.106;7.004;2022-10-16T02:43:21;3.65;;;2.78;;
52564;SDS011;38460;53.106;7.004;2022-10-16T02:45:47;4.32;;;2.28;;
52564;SDS011;38460;53.106;7.004;2022-10-16T02:48:13;3.58;;;2.13;;
52564;SDS011;38460;53.106;7.004;2022-10-16T02:50:38;5.35;;;2.22;;
52564;SDS011;38460;53.106;7.004;2022-10-16T02:53:04;6.35;;;2.60;;
52564;SDS011;38460;53.106;7.004;2022-10-16T02:55:30;4.15;;;2.10;;
52564;SDS011;38460;53.106;7.004;2022-10-16T02:57:55;4.65;;;2.40;;
52564;SDS011;38460;53.106;7.004;2022-10-16T03:00:21;5.38;;;2.33;;
52564;SDS011;38460;53.106;7.004;2022-10-16T03:02:47;5.53;;;2.25;;
52564;SDS011;38460;53.106;7.004;2022-10-16T03:05:13;8.57;;;3.08;;
52564;SDS011;38460;53.106;7.004;2022-10-16T03:07:39;6.60;;;2.58;;
52564;SDS011;38460;53.106;7.004;2022-10-16T03:10:05;4.18;;;2.38;;
52564;SDS011;38460;53.106;7.004;2022-10-16T03:12:31;6.78;;;2.65;;
52564;SDS011;38460;53.106;7.004;2022-10-16T03:14:57;5.10;;;2.55;;
52564;SDS011;38460;53.106;7.004;2022-10-16T03:17:23;4.90;;;2.30;;
52564;SDS011;38460;53.106;7.004;2022-10-16T03:19:49;5.63;;;2.28;;
52564;SDS011;38460;53.106;7.004;2022-10-16T03:22:15;11.35;;;2.97;;
52564;SDS011;38460;53.106;7.004;2022-10-16T03:24:41;5.15;;;2.40;;
52564;SDS011;38460;53.106;7.004;2022-10-16T03:27:07;3.28;;;2.25;;
52564;SDS011;38460;53.106;7.004;2022-10-16T03:29:32;8.27;;;2.53;;
52564;SDS011;38460;53.106;7.004;2022-10-16T03:31:59;4.72;;;2.00;;
52564;SDS011;38460;53.106;7.004;2022-10-16T03:34:25;4.28;;;2.20;;
52564;SDS011;38460;53.106;7.004;2022-10-16T03:36:51;8.13;;;2.40;;
52564;SDS011;38460;53.106;7.004;2022-10-16T03:39:17;6.03;;;2.10;;
52564;SDS011;38460;53.106;7.004;2022-10-16T03:41:43;5.00;;;2.60;;
52564;SDS011;38460;53.106;7.004;2022-10-16T03:44:09;5.85;;;2.60;;
52564;SDS011;38460;53.106;7.004;2022-10-16T03:46:34;4.65;;;2.38;;
52564;SDS011;38460;53.106;7.004;2022-10-16T03:49:00;5.70;;;2.63;;
52564;SDS011;38460;53.106;7.004;2022-10-16T03:51:26;5.78;;;2.95;;
52564;SDS011;38460;53.106;7.004;2022-10-16T03:53:51;5.55;;;2.20;;
52564;SDS011;38460;53.106;7.004;2022-10-16T03:56:18;4.93;;;2.40;;
52564;SDS011;38460;53.106;7.004;2022-10-16T03:58:43;4.32;;;2.38;;
52564;SDS011;38460;53.106;7.004;2022-10-16T04:01:09;6.75;;;2.38;;
52564;SDS011;38460;53.106;7.004;2022-10-16T04:03:35;3.60;;;1.95;;
52564;SDS011;38460;53.106;7.004;2022-10-16T04:06:00;4.00;;;2.40;;
52564;SDS011;38460;53.106;7.004;2022-10-16T04:08:26;8.07;;;2.30;;
52564;SDS011;38460;53.106;7.004;2022-10-16T04:10:52;3.95;;;2.10;;
52564;SDS011;38460;53.106;7.004;2022-10-16T04:13:17;4.20;;;2.13;;
52564;SDS011;38460;53.106;7.004;2022-10-16T04:15:44;3.65;;;2.28;;
52564;SDS011;38460;53.106;7.004;2022-10-16T04:18:10;5.00;;;2.22;;
52564;SDS011;38460;53.106;7.004;2022-10-16T04:20:36;5.30;;;2.17;;
52564;SDS011;38460;53.106;7.004;2022-10-16T04:23:02;5.32;;;2.42;;
52564;SDS011;38460;53.106;7.004;2022-10-16T04:25:28;2.85;;;1.98;;
52564;SDS011;38460;53.106;7.004;2022-10-16T04:27:54;5.43;;;2.35;;
52564;SDS011;38460;53.106;7.004;2022-10-16T04:30:20;5.95;;;2.10;;
52564;SDS011;38460;53.106;7.004;2022-10-16T04:32:49;4.13;;;2.08;;
52564;SDS011;38460;53.106;7.004;2022-10-16T04:35:19;3.20;;;1.73;;
52564;SDS011;38460;53.106;7.004;2022-10-16T04:37:46;3.30;;;1.98;;
52564;SDS011;38460;53.106;7.004;2022-10-16T04:40:12;3.08;;;2.20;;
52564;SDS011;38460;53.106;7.004;2022-10-16T04:42:39;5.45;;;2.30;;
52564;SDS011;38460;53.106;7.004;2022-10-16T04:45:05;4.18;;;2.28;;
52564;SDS011;38460;53.106;7.004;2022-10-16T04:47:31;8.07;;;2.55;;
52564;SDS011;38460;53.106;7.004;2022-10-16T04:49:57;4.22;;;2.15;;
52564;SDS011;38460;53.106;7.004;2022-10-16T04:52:24;3.80;;;2.17;;
52564;SDS011;38460;53.106;7.004;2022-10-16T04:54:51;6.00;;;2.50;;
52564;SDS011;38460;53.106;7.004;2022-10-16T04:57:17;3.67;;;2.42;;
52564;SDS011;38460;53.106;7.004;2022-10-16T04:59:42;3.85;;;2.55;;
52564;SDS011;38460;53.106;7.004;2022-10-16T05:02:08;4.70;;;2.65;;
52564;SDS011;38460;53.106;7.004;2022-10-16T05:04:34;4.93;;;2.17;;
52564;SDS011;38460;53.106;7.004;2022-10-16T05:07:00;7.35;;;2.35;;
52564;SDS011;38460;53.106;7.004;2022-10-16T05:09:25;4.95;;;2.20;;
52564;SDS011;38460;53.106;7.004;2022-10-16T05:11:51;4.20;;;2.53;;
52564;SDS011;38460;53.106;7.004;2022-10-16T05:14:17;4.82;;;2.35;;
52564;SDS011;38460;53.106;7.004;2022-10-16T05:16:42;5.18;;;2.80;;
52564;SDS011;38460;53.106;7.004;2022-10-16T05:19:09;5.13;;;2.50;;
52564;SDS011;38460;53.106;7.004;2022-10-16T05:21:35;4.70;;;2.72;;
52564;SDS011;38460;53.106;7.004;2022-10-16T05:24:01;5.63;;;2.75;;
52564;SDS011;38460;53.106;7.004;2022-10-16T05:26:26;4.75;;;2.88;;
52564;SDS011;38460;53.106;7.004;2022-10-16T05:28:52;4.88;;;2.80;;
52564;SDS011;38460;53.106;7.004;2022-10-16T05:31:18;4.28;;;2.67;;
52564;SDS011;38460;53.106;7.004;2022-10-16T05:33:43;5.18;;;2.60;;
52564;SDS011;38460;53.106;7.004;2022-10-16T05:36:09;5.30;;;2.70;;
52564;SDS011;38460;53.106;7.004;2022-10-16T05:38:36;6.22;;;2.95;;
52564;SDS011;38460;53.106;7.004;2022-10-16T05:41:02;4.53;;;2.78;;
52564;SDS011;38460;53.106;7.004;2022-10-16T05:43:29;5.60;;;2.50;;
52564;SDS011;38460;53.106;7.004;2022-10-16T05:46:00;4.43;;;2.70;;
52564;SDS011;38460;53.106;7.004;2022-10-16T05:48:30;4.50;;;2.40;;
52564;SDS011;38460;53.106;7.004;2022-10-16T05:51:00;4.78;;;2.67;;
52564;SDS011;38460;53.106;7.004;2022-10-16T05:53:30;3.67;;;2.33;;
52564;SDS011;38460;53.106;7.004;2022-10-16T05:55:58;4.93;;;2.60;;
52564;SDS011;38460;53.106;7.004;2022-10-16T05:58:25;5.35;;;2.72;;
52564;SDS011;38460;53.106;7.004;2022-10-16T06:00:55;4.30;;;2.65;;
52564;SDS011;38460;53.106;7.004;2022-10-16T06:03:25;6.82;;;2.92;;
52564;SDS011;38460;53.106;7.004;2022-10-16T06:05:51;4.20;;;2.78;;
52564;SDS011;38460;53.106;7.004;2022-10-16T06:08:18;6.53;;;3.17;;
52564;SDS011;38460;53.106;7.004;2022-10-16T06:10:44;6.50;;;3.00;;
52564;SDS011;38460;53.106;7.004;2022-10-16T06:13:10;7.95;;;3.03;;
52564;SDS011;38460;53.106;7.004;2022-10-16T06:15:37;4.68;;;2.42;;
52564;SDS011;38460;53.106;7.004;2022-10-16T06:18:04;6.03;;;2.60;;
52564;SDS011;38460;53.106;7.004;2022-10-16T06:20:30;5.53;;;3.10;;
52564;SDS011;38460;53.106;7.004;2022-10-16T06:22:56;5.72;;;3.15;;
52564;SDS011;38460;53.106;7.004;2022-10-16T06:25:22;5.50;;;2.90;;
52564;SDS011;38460;53.106;7.004;2022-10-16T06:27:48;6.07;;;3.22;;
52564;SDS011;38460;53.106;7.004;2022-10-16T06:30:13;4.53;;;3.20;;
52564;SDS011;38460;53.106;7.004;2022-10-16T06:32:39;4.80;;;2.90;;
52564;SDS011;38460;53.106;7.004;2022-10-16T06:35:05;5.20;;;2.80;;
52564;SDS011;38460;53.106;7.004;2022-10-16T06:37:31;5.40;;;3.22;;
52564;SDS011;38460;53.106;7.004;2022-10-16T06:39:57;4.85;;;2.92;;
52564;SDS011;38460;53.106;7.004;2022-10-16T06:42:22;6.03;;;3.08;;
52564;SDS011;38460;53.106;7.004;2022-10-16T06:44:48;6.03;;;2.78;;
52564;SDS011;38460;53.106;7.004;2022-10-16T06:47:14;7.20;;;2.60;;
52564;SDS011;38460;53.106;7.004;2022-10-16T06:49:39;6.22;;;2.75;;
52564;SDS011;38460;53.106;7.004;2022-10-16T06:52:05;6.35;;;2.80;;
52564;SDS011;38460;53.106;7.004;2022-10-16T06:54:31;3.70;;;2.42;;
52564;SDS011;38460;53.106;7.004;2022-10-16T06:56:57;4.78;;;2.28;;
52564;SDS011;38460;53.106;7.004;2022-10-16T06:59:24;4.65;;;2.95;;
52564;SDS011;38460;53.106;7.004;2022-10-16T07:01:50;6.00;;;2.80;;
52564;SDS011;38460;53.106;7.004;2022-10-16T07:04:16;5.72;;;2.90;;
52564;SDS011;38460;53.106;7.004;2022-10-16T07:06:42;4.30;;;2.33;;
52564;SDS011;38460;53.106;7.004;2022-10-16T07:09:09;5.68;;;2.97;;
52564;SDS011;38460;53.106;7.004;2022-10-16T07:11:36;5.60;;;2.50;;
52564;SDS011;38460;53.106;7.004;2022-10-16T07:14:03;5.97;;;2.42;;
52564;SDS011;38460;53.106;7.004;2022-10-16T07:16:30;5.88;;;2.35;;
52564;SDS011;38460;53.106;7.004;2022-10-16T07:18:57;4.03;;;2.25;;
52564;SDS011;38460;53.106;7.004;2022-10-16T07:21:25;6.50;;;2.70;;
52564;SDS011;38460;53.106;7.004;2022-10-16T07:23:54;4.47;;;2.38;;
52564;SDS011;38460;53.106;7.004;2022-10-16T07:26:26;5.15;;;2.67;;
52564;SDS011;38460;53.106;7.004;2022-10-16T07:28:53;5.32;;;2.30;;
52564;SDS011;38460;53.106;7.004;2022-10-16T07:31:20;3.92;;;2.13;;
52564;SDS011;38460;53.106;7.004;2022-10-16T07:33:46;5.68;;;2.40;;
52564;SDS011;38460;53.106;7.004;2022-10-16T07:36:13;4.95;;;2.58;;
52564;SDS011;38460;53.106;7.004;2022-10-16T07:38:40;4.43;;;2.58;;
52564;SDS011;38460;53.106;7.004;2022-10-16T07:41:08;4.22;;;2.30;;
52564;SDS011;38460;53.106;7.004;2022-10-16T07:43:36;6.13;;;2.33;;
52564;SDS011;38460;53.106;7.004;2022-10-16T07:46:02;5.57;;;2.72;;
52564;SDS011;38460;53.106;7.004;2022-10-16T07:48:30;5.07;;;2.50;;
52564;SDS011;38460;53.106;7.004;2022-10-16T07:50:58;6.20;;;2.33;;
52564;SDS011;38460;53.106;7.004;2022-10-16T07:53:27;6.72;;;2.35;;
52564;SDS011;38460;53.106;7.004;2022-10-16T07:55:57;4.63;;;2.60;;
52564;SDS011;38460;53.106;7.004;2022-10-16T07:58:28;4.25;;;2.28;;
52564;SDS011;38460;53.106;7.004;2022-10-16T08:00:54;4.93;;;2.20;;
52564;SDS011;38460;53.106;7.004;2022-10-16T08:03:21;4.78;;;2.67;;
52564;SDS011;38460;53.106;7.004;2022-10-16T08:05:46;6.32;;;2.70;;
52564;SDS011;38460;53.106;7.004;2022-10-16T08:08:13;8.70;;;2.40;;
52564;SDS011;38460;53.106;7.004;2022-10-16T08:10:40;3.75;;;2.60;;
52564;SDS011;38460;53.106;7.004;2022-10-16T08:13:06;4.78;;;3.00;;
52564;SDS011;38460;53.106;7.004;2022-10-16T08:15:31;6.10;;;2.90;;
52564;SDS011;38460;53.106;7.004;2022-10-16T08:17:58;5.93;;;2.80;;
52564;SDS011;38460;53.106;7.004;2022-10-16T08:20:26;4.70;;;2.42;;
52564;SDS011;38460;53.106;7.004;2022-10-16T08:22:52;7.03;;;2.63;;
52564;SDS011;38460;53.106;7.004;2022-10-16T08:25:19;5.45;;;2.38;;
52564;SDS011;38460;53.106;7.004;2022-10-16T08:27:46;4.38;;;2.03;;
52564;SDS011;38460;53.106;7.004;2022-10-16T08:30:12;5.35;;;3.40;;
52564;SDS011;38460;53.106;7.004;2022-10-16T08:32:38;6.22;;;2.45;;
52564;SDS011;38460;53.106;7.004;2022-10-16T08:35:04;5.07;;;2.20;;
52564;SDS011;38460;53.106;7.004;2022-10-16T08:37:31;4.60;;;2.05;;
52564;SDS011;38460;53.106;7.004;2022-10-16T08:39:58;5.10;;;2.20;;
52564;SDS011;38460;53.106;7.004;2022-10-16T08:50:46;4.28;;;2.40;;
52564;SDS011;38460;53.106;7.004;2022-10-16T08:53:16;4.53;;;1.92;;
52564;SDS011;38460;53.106;7.004;2022-10-16T08:55:52;4.75;;;2.30;;
52564;SDS011;38460;53.106;7.004;2022-10-16T08:58:28;4.47;;;2.05;;
52564;SDS011;38460;53.106;7.004;2022-10-16T09:00:59;4.97;;;2.05;;
52564;SDS011;38460;53.106;7.004;2022-10-16T09:09:09;3.42;;;2.17;;
52564;SDS011;38460;53.106;7.004;2022-10-16T09:11:59;3.35;;;1.77;;
52564;SDS011;38460;53.106;7.004;2022-10-16T09:15:02;4.15;;;2.50;;
52564;SDS011;38460;53.106;7.004;2022-10-16T09:20:25;4.05;;;1.33;;
52564;SDS011;38460;53.106;7.004;2022-10-16T09:23:26;5.60;;;2.03;;
52564;SDS011;38460;53.106;7.004;2022-10-16T09:25:59;4.82;;;1.85;;
52564;SDS011;38460;53.106;7.004;2022-10-16T09:28:25;4.43;;;1.60;;
52564;SDS011;38460;53.106;7.004;2022-10-16T09:30:51;5.57;;;1.92;;
52564;SDS011;38460;53.106;7.004;2022-10-16T09:33:19;5.63;;;2.05;;
52564;SDS011;38460;53.106;7.004;2022-10-16T09:35:49;4.57;;;2.92;;
52564;SDS011;38460;53.106;7.004;2022-10-16T09:41:00;4.18;;;1.75;;
52564;SDS011;38460;53.106;7.004;2022-10-16T09:46:07;5.20;;;1.50;;
52564;SDS011;38460;53.106;7.004;2022-10-16T09:48:49;4.68;;;1.55;;
52564;SDS011;38460;53.106;7.004;2022-10-16T09:51:50;4.27;;;1.47;;
52564;SDS011;38460;53.106;7.004;2022-10-16T09:56:35;7.43;;;1.67;;
52564;SDS011;38460;53.106;7.004;2022-10-16T09:59:16;4.07;;;1.75;;
52564;SDS011;38460;53.106;7.004;2022-10-16T10:01:50;6.38;;;2.03;;
52564;SDS011;38460;53.106;7.004;2022-10-16T10:04:21;7.45;;;2.20;;
52564;SDS011;38460;53.106;7.004;2022-10-16T10:06:49;9.07;;;2.77;;
52564;SDS011;38460;53.106;7.004;2022-10-16T10:09:26;4.45;;;1.70;;
52564;SDS011;38460;53.106;7.004;2022-10-16T10:12:02;6.03;;;2.08;;
52564;SDS011;38460;53.106;7.004;2022-10-16T10:14:31;3.47;;;1.48;;
52564;SDS011;38460;53.106;7.004;2022-10-16T10:19:41;7.28;;;1.77;;
52564;SDS011;38460;53.106;7.004;2022-10-16T10:24:59;7.93;;;2.30;;
52564;SDS011;38460;53.106;7.004;2022-10-16T10:30:45;6.93;;;2.15;;
52564;SDS011;38460;53.106;7.004;2022-10-16T10:55:45;6.05;;;2.25;;
52564;SDS011;38460;53.106;7.004;2022-10-16T11:06:22;5.97;;;2.03;;
52564;SDS011;38460;53.106;7.004;2022-10-16T11:09:19;8.20;;;2.55;;
52564;SDS011;38460;53.106;7.004;2022-10-16T11:12:02;9.00;;;2.10;;
52564;SDS011;38460;53.106;7.004;2022-10-16T11:17:25;5.25;;;1.88;;
52564;SDS011;38460;53.106;7.004;2022-10-16T11:20:00;7.22;;;2.00;;
52564;SDS011;38460;53.106;7.004;2022-10-16T11:22:47;6.60;;;2.00;;
52564;SDS011;38460;53.106;7.004;2022-10-16T11:25:21;5.55;;;1.90;;
52564;SDS011;38460;53.106;7.004;2022-10-16T11:30:29;7.28;;;1.98;;
52564;SDS011;38460;53.106;7.004;2022-10-16T11:33:10;7.55;;;2.42;;
52564;SDS011;38460;53.106;7.004;2022-10-16T11:41:04;10.23;;;1.95;;
52564;SDS011;38460;53.106;7.004;2022-10-16T11:43:43;4.90;;;2.10;;
52564;SDS011;38460;53.106;7.004;2022-10-16T11:46:19;9.20;;;2.25;;
52564;SDS011;38460;53.106;7.004;2022-10-16T11:51:53;8.18;;;2.05;;
52564;SDS011;38460;53.106;7.004;2022-10-16T11:54:42;9.30;;;2.33;;
52564;SDS011;38460;53.106;7.004;2022-10-16T11:57:12;9.18;;;2.25;;
52564;SDS011;38460;53.106;7.004;2022-10-16T11:59:54;5.35;;;1.92;;
52564;SDS011;38460;53.106;7.004;2022-10-16T12:07:53;6.53;;;2.10;;
52564;SDS011;38460;53.106;7.004;2022-10-16T12:10:34;9.32;;;2.08;;
52564;SDS011;38460;53.106;7.004;2022-10-16T12:13:03;8.00;;;2.42;;
52564;SDS011;38460;53.106;7.004;2022-10-16T12:15:31;8.18;;;1.98;;
52564;SDS011;38460;53.106;7.004;2022-10-16T12:17:58;6.38;;;1.50;;
52564;SDS011;38460;53.106;7.004;2022-10-16T12:22:56;7.35;;;2.38;;
52564;SDS011;38460;53.106;7.004;2022-10-16T12:25:33;7.65;;;1.98;;
52564;SDS011;38460;53.106;7.004;2022-10-16T12:30:40;7.50;;;2.08;;
52564;SDS011;38460;53.106;7.004;2022-10-16T12:35:49;7.10;;;1.80;;
52564;SDS011;38460;53.106;7.004;2022-10-16T12:38:16;6.05;;;1.85;;
52564;SDS011;38460;53.106;7.004;2022-10-16T12:40:57;9.32;;;2.47;;
52564;SDS011;38460;53.106;7.004;2022-10-16T12:43:47;6.53;;;1.80;;
52564;SDS011;38460;53.106;7.004;2022-10-16T12:48:39;5.78;;;1.70;;
52564;SDS011;38460;53.106;7.004;2022-10-16T12:51:21;6.00;;;1.92;;
52564;SDS011;38460;53.106;7.004;2022-10-16T13:10:14;6.57;;;1.92;;
52564;SDS011;38460;53.106;7.004;2022-10-16T13:25:16;7.43;;;2.10;;
52564;SDS011;38460;53.106;7.004;2022-10-16T13:27:42;8.70;;;2.13;;
52564;SDS011;38460;53.106;7.004;2022-10-16T13:30:31;6.60;;;2.13;;
52564;SDS011;38460;53.106;7.004;2022-10-16T13:36:03;6.78;;;1.83;;
52564;SDS011;38460;53.106;7.004;2022-10-16T13:38:31;6.55;;;2.10;;
52564;SDS011;38460;53.106;7.004;2022-10-16T13:41:03;5.03;;;1.83;;
52564;SDS011;38460;53.106;7.004;2022-10-16T13:43:37;7.00;;;2.17;;
52564;SDS011;38460;53.106;7.004;2022-10-16T13:46:17;8.63;;;1.70;;
52564;SDS011;38460;53.106;7.004;2022-10-16T13:48:44;5.22;;;2.00;;
52564;SDS011;38460;53.106;7.004;2022-10-16T13:51:21;9.07;;;1.85;;
52564;SDS011;38460;53.106;7.004;2022-10-16T13:53:47;5.60;;;2.00;;
52564;SDS011;38460;53.106;7.004;2022-10-16T13:56:14;5.78;;;2.17;;
52564;SDS011;38460;53.106;7.004;2022-10-16T13:58:44;7.65;;;1.80;;
52564;SDS011;38460;53.106;7.004;2022-10-16T14:03:48;8.93;;;2.00;;
52564;SDS011;38460;53.106;7.004;2022-10-16T14:06:16;7.97;;;2.28;;
52564;SDS011;38460;53.106;7.004;2022-10-16T14:08:53;5.65;;;2.22;;
52564;SDS011;38460;53.106;7.004;2022-10-16T14:11:25;9.35;;;3.22;;
52564;SDS011;38460;53.106;7.004;2022-10-16T14:13:51;9.07;;;2.22;;
52564;SDS011;38460;53.106;7.004;2022-10-16T14:16:22;6.38;;;1.70;;
52564;SDS011;38460;53.106;7.004;2022-10-16T14:18:55;5.45;;;2.13;;
52564;SDS011;38460;53.106;7.004;2022-10-16T14:21:26;5.88;;;1.70;;
52564;SDS011;38460;53.106;7.004;2022-10-16T14:23:52;7.13;;;1.65;;
52564;SDS011;38460;53.106;7.004;2022-10-16T14:26:20;5.50;;;1.60;;
52564;SDS011;38460;53.106;7.004;2022-10-16T14:28:49;9.57;;;2.45;;
52564;SDS011;38460;53.106;7.004;2022-10-16T14:31:36;7.00;;;1.88;;
52564;SDS011;38460;53.106;7.004;2022-10-16T14:34:02;4.72;;;1.67;;
52564;SDS011;38460;53.106;7.004;2022-10-16T14:36:29;9.23;;;2.00;;
52564;SDS011;38460;53.106;7.004;2022-10-16T14:39:03;8.52;;;2.08;;
52564;SDS011;38460;53.106;7.004;2022-10-16T14:41:43;6.75;;;2.05;;
52564;SDS011;38460;53.106;7.004;2022-10-16T14:44:11;7.55;;;2.40;;
52564;SDS011;38460;53.106;7.004;2022-10-16T14:46:39;7.25;;;1.98;;
52564;SDS011;38460;53.106;7.004;2022-10-16T14:51:35;7.45;;;1.50;;
52564;SDS011;38460;53.106;7.004;2022-10-16T14:54:02;6.40;;;1.60;;
52564;SDS011;38460;53.106;7.004;2022-10-16T14:56:29;8.48;;;1.88;;
52564;SDS011;38460;53.106;7.004;2022-10-16T14:59:00;7.93;;;2.00;;
52564;SDS011;38460;53.106;7.004;2022-10-16T15:01:38;7.50;;;2.00;;
52564;SDS011;38460;53.106;7.004;2022-10-16T15:04:04;5.43;;;1.63;;
52564;SDS011;38460;53.106;7.004;2022-10-16T15:06:30;7.05;;;1.80;;
52564;SDS011;38460;53.106;7.004;2022-10-16T15:08:55;4.72;;;1.65;;
52564;SDS011;38460;53.106;7.004;2022-10-16T15:11:21;8.25;;;1.90;;
52564;SDS011;38460;53.106;7.004;2022-10-16T15:13:47;4.30;;;1.55;;
52564;SDS011;38460;53.106;7.004;2022-10-16T15:16:15;3.60;;;1.48;;
52564;SDS011;38460;53.106;7.004;2022-10-16T15:18:42;9.73;;;1.95;;
52564;SDS011;38460;53.106;7.004;2022-10-16T15:21:10;8.13;;;2.20;;
52564;SDS011;38460;53.106;7.004;2022-10-16T15:23:59;6.78;;;1.80;;
52564;SDS011;38460;53.106;7.004;2022-10-16T15:26:26;6.50;;;2.30;;
52564;SDS011;38460;53.106;7.004;2022-10-16T15:28:53;6.38;;;1.60;;
52564;SDS011;38460;53.106;7.004;2022-10-16T15:31:19;12.82;;;2.92;;
52564;SDS011;38460;53.106;7.004;2022-10-16T15:33:48;6.03;;;1.60;;
52564;SDS011;38460;53.106;7.004;2022-10-16T15:36:24;8.75;;;2.47;;
52564;SDS011;38460;53.106;7.004;2022-10-16T15:38:54;8.48;;;1.92;;
52564;SDS011;38460;53.106;7.004;2022-10-16T15:41:21;5.93;;;1.75;;
52564;SDS011;38460;53.106;7.004;2022-10-16T15:43:48;7.50;;;1.98;;
52564;SDS011;38460;53.106;7.004;2022-10-16T15:46:14;7.28;;;2.40;;
52564;SDS011;38460;53.106;7.004;2022-10-16T15:48:42;8.30;;;2.13;;
52564;SDS011;38460;53.106;7.004;2022-10-16T15:51:08;8.98;;;2.10;;
52564;SDS011;38460;53.106;7.004;2022-10-16T15:53:34;9.30;;;2.47;;
52564;SDS011;38460;53.106;7.004;2022-10-16T15:56:01;11.05;;;2.13;;
52564;SDS011;38460;53.106;7.004;2022-10-16T15:58:28;7.60;;;2.50;;
52564;SDS011;38460;53.106;7.004;2022-10-16T16:00:58;6.40;;;2.45;;
52564;SDS011;38460;53.106;7.004;2022-10-16T16:03:29;7.47;;;2.20;;
52564;SDS011;38460;53.106;7.004;2022-10-16T16:05:56;8.68;;;2.67;;
52564;SDS011;38460;53.106;7.004;2022-10-16T16:08:22;12.38;;;3.13;;
52564;SDS011;38460;53.106;7.004;2022-10-16T16:11:05;9.90;;;2.75;;
52564;SDS011;38460;53.106;7.004;2022-10-16T16:13:37;7.82;;;2.85;;
52564;SDS011;38460;53.106;7.004;2022-10-16T16:16:11;9.63;;;2.97;;
52564;SDS011;38460;53.106;7.004;2022-10-16T16:18:38;10.63;;;3.03;;
52564;SDS011;38460;53.106;7.004;2022-10-16T16:21:05;12.65;;;2.95;;
52564;SDS011;38460;53.106;7.004;2022-10-16T16:23:31;9.63;;;3.33;;
52564;SDS011;38460;53.106;7.004;2022-10-16T16:28:35;11.70;;;2.47;;
52564;SDS011;38460;53.106;7.004;2022-10-16T16:31:02;12.52;;;2.80;;
52564;SDS011;38460;53.106;7.004;2022-10-16T16:33:28;11.82;;;3.35;;
52564;SDS011;38460;53.106;7.004;2022-10-16T16:35:57;11.23;;;3.30;;
52564;SDS011;38460;53.106;7.004;2022-10-16T16:38:23;12.80;;;4.28;;
52564;SDS011;38460;53.106;7.004;2022-10-16T16:40:50;13.57;;;3.97;;
52564;SDS011;38460;53.106;7.004;2022-10-16T16:43:17;7.85;;;3.90;;
52564;SDS011;38460;53.106;7.004;2022-10-16T16:45:43;13.95;;;4.45;;
52564;SDS011;38460;53.106;7.004;2022-10-16T16:48:09;10.27;;;3.78;;
52564;SDS011;38460;53.106;7.004;2022-10-16T16:50:35;8.73;;;2.83;;
52564;SDS011;38460;53.106;7.004;2022-10-16T16:53:01;14.35;;;3.70;;
52564;SDS011;38460;53.106;7.004;2022-10-16T16:55:27;13.88;;;3.85;;
52564;SDS011;38460;53.106;7.004;2022-10-16T16:57:53;10.38;;;3.20;;
52564;SDS011;38460;53.106;7.004;2022-10-16T17:00:19;7.35;;;3.13;;
52564;SDS011;38460;53.106;7.004;2022-10-16T17:02:48;8.23;;;3.50;;
52564;SDS011;38460;53.106;7.004;2022-10-16T17:05:14;9.38;;;3.40;;
52564;SDS011;38460;53.106;7.004;2022-10-16T17:07:40;12.30;;;3.50;;
52564;SDS011;38460;53.106;7.004;2022-10-16T17:10:06;8.30;;;3.47;;
52564;SDS011;38460;53.106;7.004;2022-10-16T17:12:33;8.10;;;2.72;;
52564;SDS011;38460;53.106;7.004;2022-10-16T17:14:59;11.45;;;3.10;;
52564;SDS011;38460;53.106;7.004;2022-10-16T17:17:24;10.05;;;3.08;;
52564;SDS011;38460;53.106;7.004;2022-10-16T17:19:50;11.93;;;3.25;;
52564;SDS011;38460;53.106;7.004;2022-10-16T17:22:17;7.75;;;3.35;;
52564;SDS011;38460;53.106;7.004;2022-10-16T17:24:43;12.30;;;3.45;;
52564;SDS011;38460;53.106;7.004;2022-10-16T17:27:09;13.90;;;4.00;;
52564;SDS011;38460;53.106;7.004;2022-10-16T17:29:36;9.75;;;3.80;;
52564;SDS011;38460;53.106;7.004;2022-10-16T17:32:02;8.13;;;4.20;;
52564;SDS011;38460;53.106;7.004;2022-10-16T17:34:28;8.98;;;4.30;;